createdAt,value
2019-04-28T00:02:12.590Z,11.70
2019-04-28T00:04:41.513Z,11.70
2019-04-28T00:07:09.517Z,11.70
2019-04-28T00:09:37.281Z,11.60
2019-04-28T00:12:05.326Z,11.60
2019-04-28T00:14:33.210Z,11.50
2019-04-28T00:17:01.173Z,11.50
2019-04-28T00:19:30.845Z,11.50
2019-04-28T00:22:07.238Z,11.50
2019-04-28T00:24:51.516Z,11.40
2019-04-28T00:27:21.501Z,11.40
2019-04-28T00:29:49.593Z,11.30
2019-04-28T00:32:17.450Z,11.20
2019-04-28T00:34:45.231Z,11.20
2019-04-28T00:37:44.672Z,11.20
2019-04-28T00:40:12.442Z,11.10
2019-04-28T00:42:41.354Z,11.10
2019-04-28T00:45:11.552Z,11.10
2019-04-28T00:47:40.867Z,11.10
2019-04-28T00:50:09.519Z,11.10
2019-04-28T00:52:37.399Z,11.00
2019-04-28T00:55:05.462Z,11.00
2019-04-28T00:57:33.365Z,10.90
2019-04-28T01:00:02.419Z,10.90
2019-04-28T01:02:35.786Z,10.80
2019-04-28T01:05:04.097Z,10.70
2019-04-28T01:07:33.083Z,10.70
2019-04-28T01:10:01.530Z,10.70
2019-04-28T01:12:31.064Z,10.70
2019-04-28T01:15:00.241Z,10.70
2019-04-28T01:17:39.913Z,10.80
2019-04-28T01:20:09.824Z,10.80
2019-04-28T01:22:37.712Z,10.80
2019-04-28T01:25:06.487Z,10.80
2019-04-28T01:27:53.505Z,10.80
2019-04-28T01:30:53.488Z,10.80
2019-04-28T01:33:43.772Z,10.70
2019-04-28T01:36:11.574Z,10.70
2019-04-28T01:38:40.157Z,10.70
2019-04-28T01:41:09.844Z,10.70
2019-04-28T01:43:37.801Z,10.60
2019-04-28T01:46:05.661Z,10.60
2019-04-28T01:48:33.493Z,10.60
2019-04-28T01:51:01.341Z,10.60
2019-04-28T01:53:30.791Z,10.50
2019-04-28T01:55:59.562Z,10.50
2019-04-28T01:58:29.558Z,10.60
2019-04-28T02:00:57.115Z,10.70
2019-04-28T02:03:24.999Z,10.70
2019-04-28T02:05:52.848Z,10.70
2019-04-28T02:08:20.618Z,10.70
2019-04-28T02:10:50.177Z,10.70
2019-04-28T02:13:19.742Z,10.60
2019-04-28T02:15:47.751Z,10.60
2019-04-28T02:18:15.831Z,10.40
2019-04-28T02:20:45.475Z,10.40
2019-04-28T02:23:19.779Z,10.40
2019-04-28T02:25:49.682Z,10.30
2019-04-28T02:28:19.695Z,10.10
2019-04-28T02:30:50.275Z,9.90
2019-04-28T02:33:16.586Z,9.90
2019-04-28T02:35:44.403Z,9.90
2019-04-28T02:38:12.308Z,9.90
2019-04-28T02:40:40.736Z,9.90
2019-04-28T02:43:11.268Z,9.90
2019-04-28T02:45:41.028Z,9.90
2019-04-28T02:48:11.192Z,9.90
2019-04-28T02:50:50.986Z,9.90
2019-04-28T02:53:23.780Z,9.90
2019-04-28T02:55:51.610Z,9.90
2019-04-28T02:58:22.488Z,9.80
2019-04-28T03:01:04.787Z,9.70
2019-04-28T03:03:20.929Z,9.80
2019-04-28T03:05:51.031Z,9.80
2019-04-28T03:08:17.763Z,9.80
2019-04-28T03:10:45.920Z,9.70
2019-04-28T03:13:13.720Z,9.70
2019-04-28T03:15:42.143Z,9.70
2019-04-28T03:18:11.480Z,9.80
2019-04-28T03:20:41.817Z,9.80
2019-04-28T03:23:12.277Z,9.70
2019-04-28T03:25:46.022Z,9.70
2019-04-28T03:28:21.515Z,9.70
2019-04-28T03:31:48.942Z,9.70
2019-04-28T03:33:49.126Z,9.70
2019-04-28T03:36:16.761Z,9.60
2019-04-28T03:38:44.599Z,9.60
2019-04-28T03:41:12.485Z,9.60
2019-04-28T03:43:40.695Z,9.60
2019-04-28T03:46:14.030Z,9.60
2019-04-28T03:48:41.804Z,9.50
2019-04-28T03:51:12.972Z,9.50
2019-04-28T03:53:41.010Z,9.60
2019-04-28T03:56:11.360Z,9.60
2019-04-28T03:58:40.567Z,9.60
2019-04-28T04:01:10.452Z,9.60
2019-04-28T04:03:37.609Z,9.50
2019-04-28T04:06:05.569Z,9.50
2019-04-28T04:08:33.474Z,9.50
2019-04-28T04:11:20.223Z,9.50
2019-04-28T04:13:53.160Z,9.40
2019-04-28T04:16:37.503Z,9.30
2019-04-28T04:19:06.075Z,9.20
2019-04-28T04:21:33.967Z,9.20
2019-04-28T04:24:01.734Z,9.20
2019-04-28T04:26:31.042Z,9.20
2019-04-28T04:29:00.896Z,9.20
2019-04-28T04:31:31.474Z,9.20
2019-04-28T04:34:02.622Z,9.20
2019-04-28T04:36:30.909Z,9.20
2019-04-28T04:38:57.852Z,9.20
2019-04-28T04:41:25.698Z,9.10
2019-04-28T04:43:53.475Z,9.10
2019-04-28T04:46:23.161Z,9.10
2019-04-28T04:48:51.106Z,9.10
2019-04-28T04:51:21.316Z,9.10
2019-04-28T04:53:51.102Z,9.20
2019-04-28T04:56:21.009Z,9.20
2019-04-28T04:58:50.452Z,9.20
2019-04-28T05:01:32.640Z,9.20
2019-04-28T05:04:06.283Z,9.10
2019-04-28T05:06:34.067Z,9.10
2019-04-28T05:09:02.343Z,9.00
2019-04-28T05:11:30.215Z,8.90
2019-04-28T05:13:59.675Z,8.90
2019-04-28T05:16:29.657Z,9.00
2019-04-28T05:18:57.210Z,9.00
2019-04-28T05:21:24.995Z,9.10
2019-04-28T05:24:20.100Z,9.10
2019-04-28T05:26:49.735Z,9.10
2019-04-28T05:29:19.948Z,9.10
2019-04-28T05:31:47.455Z,9.10
2019-04-28T05:34:15.229Z,9.20
2019-04-28T05:36:44.690Z,9.20
2019-04-28T05:39:12.631Z,9.20
2019-04-28T05:41:40.399Z,9.20
2019-04-28T05:44:09.938Z,9.30
2019-04-28T05:46:37.831Z,9.30
2019-04-28T05:49:11.373Z,9.30
2019-04-28T05:51:40.293Z,9.40
2019-04-28T05:54:17.672Z,9.40
2019-04-28T05:57:20.666Z,9.40
2019-04-28T05:59:53.714Z,9.40
2019-04-28T06:02:30.552Z,9.40
2019-04-28T06:04:59.885Z,9.40
2019-04-28T06:07:40.490Z,9.40
2019-04-28T06:10:10.149Z,9.40
2019-04-28T06:12:38.191Z,9.40
2019-04-28T06:15:06.314Z,9.50
2019-04-28T06:17:34.165Z,9.50
2019-04-28T06:20:02.050Z,9.50
2019-04-28T06:22:29.983Z,9.60
2019-04-28T06:24:57.774Z,9.70
2019-04-28T06:27:25.535Z,9.80
2019-04-28T06:29:53.419Z,9.80
2019-04-28T06:32:21.262Z,9.80
2019-04-28T06:34:49.708Z,9.90
2019-04-28T06:37:17.478Z,9.90
2019-04-28T06:39:47.290Z,10.00
2019-04-28T06:42:15.084Z,10.00
2019-04-28T06:44:42.871Z,10.00
2019-04-28T06:47:11.030Z,10.10
2019-04-28T06:49:38.913Z,10.10
2019-04-28T06:52:06.792Z,10.20
2019-04-28T06:54:34.633Z,10.20
2019-04-28T06:57:02.535Z,10.20
2019-04-28T06:59:30.658Z,10.20
2019-04-28T07:01:58.456Z,10.20
2019-04-28T07:04:26.227Z,10.20
2019-04-28T07:06:54.263Z,10.20
2019-04-28T07:09:22.189Z,10.20
2019-04-28T07:11:50.139Z,10.10
2019-04-28T07:14:17.985Z,10.20
2019-04-28T07:16:45.964Z,10.30
2019-04-28T07:19:13.726Z,10.30
2019-04-28T07:22:03.039Z,10.30
2019-04-28T07:24:30.936Z,10.30
2019-04-28T07:26:58.729Z,10.40
2019-04-28T07:29:26.509Z,10.40
2019-04-28T07:31:54.377Z,10.30
2019-04-28T07:34:22.483Z,10.40
2019-04-28T07:36:50.317Z,10.40
2019-04-28T07:39:18.170Z,10.40
2019-04-28T07:41:46.099Z,10.40
2019-04-28T07:44:14.153Z,10.50
2019-04-28T07:46:41.987Z,10.50
2019-04-28T07:49:09.848Z,10.50
2019-04-28T07:51:54.233Z,10.40
2019-04-28T07:54:22.200Z,10.40
2019-04-28T07:56:50.041Z,10.30
2019-04-28T07:59:17.872Z,10.20
2019-04-28T08:01:46.451Z,10.20
2019-04-28T08:04:14.231Z,10.20
2019-04-28T08:06:42.125Z,10.30
2019-04-28T08:09:12.468Z,10.40
2019-04-28T08:11:40.323Z,10.30
2019-04-28T08:14:08.455Z,10.40
2019-04-28T08:16:36.371Z,10.30
2019-04-28T08:19:04.433Z,10.10
2019-04-28T08:21:32.278Z,10.00
2019-04-28T08:24:00.187Z,9.90
2019-04-28T08:26:28.157Z,10.00
2019-04-28T08:28:55.941Z,10.10
2019-04-28T08:31:26.783Z,10.20
2019-04-28T08:34:02.678Z,10.20
2019-04-28T08:36:29.611Z,10.20
2019-04-28T08:38:57.407Z,10.20
2019-04-28T08:41:25.184Z,10.20
2019-04-28T08:43:53.306Z,10.10
2019-04-28T08:46:21.149Z,10.00
2019-04-28T08:48:49.022Z,10.00
2019-04-28T08:51:16.843Z,9.90
2019-04-28T08:53:44.617Z,9.80
2019-04-28T08:56:12.463Z,9.80
2019-04-28T08:58:40.356Z,9.90
2019-04-28T09:01:08.276Z,10.10
2019-04-28T09:03:36.360Z,10.20
2019-04-28T09:06:04.234Z,10.50
2019-04-28T09:08:32.147Z,10.80
2019-04-28T09:11:00.233Z,11.20
2019-04-28T09:13:28.063Z,11.30
2019-04-28T09:15:55.927Z,11.40
2019-04-28T09:18:23.878Z,11.50
2019-04-28T09:20:51.755Z,11.40
2019-04-28T09:23:19.719Z,11.50
2019-04-28T09:25:47.532Z,11.60
2019-04-28T09:28:15.841Z,11.70
2019-04-28T09:30:43.636Z,11.80
2019-04-28T09:33:11.678Z,12.10
2019-04-28T09:35:39.446Z,12.40
2019-04-28T09:38:07.250Z,12.60
2019-04-28T09:40:35.148Z,12.70
2019-04-28T09:43:08.698Z,12.70
2019-04-28T09:45:49.099Z,12.80
2019-04-28T09:48:16.950Z,12.90
2019-04-28T09:50:44.719Z,12.90
2019-04-28T09:53:12.515Z,12.80
2019-04-28T09:55:40.289Z,12.70
2019-04-28T09:58:08.113Z,12.50
2019-04-28T10:00:37.564Z,12.30
2019-04-28T10:03:05.587Z,12.10
2019-04-28T10:05:33.499Z,12.10
2019-04-28T10:08:01.435Z,12.20
2019-04-28T10:10:29.254Z,12.30
2019-04-28T10:12:57.159Z,12.30
2019-04-28T10:15:25.208Z,12.20
2019-04-28T10:17:53.087Z,12.40
2019-04-28T10:20:21.156Z,12.40
2019-04-28T10:22:48.927Z,12.40
2019-04-28T10:25:17.195Z,12.30
2019-04-28T10:27:45.120Z,12.00
2019-04-28T10:30:13.227Z,11.90
2019-04-28T10:32:41.114Z,12.00
2019-04-28T10:35:09.279Z,12.00
2019-04-28T10:37:37.151Z,12.10
2019-04-28T10:40:12.010Z,12.30
2019-04-28T10:42:39.851Z,12.50
2019-04-28T10:45:09.844Z,12.50
2019-04-28T10:47:37.623Z,12.50
2019-04-28T10:50:05.788Z,12.50
2019-04-28T10:52:33.563Z,12.50
2019-04-28T10:55:03.260Z,12.50
2019-04-28T10:57:31.187Z,12.50
2019-04-28T10:59:58.980Z,12.60
2019-04-28T11:02:26.860Z,13.00
2019-04-28T11:05:08.926Z,13.00
2019-04-28T11:07:37.131Z,13.20
2019-04-28T11:10:10.548Z,13.50
2019-04-28T11:12:38.599Z,13.70
2019-04-28T11:15:08.575Z,13.60
2019-04-28T11:17:36.427Z,13.40
2019-04-28T11:20:04.699Z,13.30
2019-04-28T11:22:32.549Z,13.40
2019-04-28T11:25:00.547Z,13.50
2019-04-28T11:27:28.836Z,13.50
2019-04-28T11:29:56.672Z,13.60
2019-04-28T11:32:24.723Z,13.40
2019-04-28T11:35:20.873Z,13.50
2019-04-28T11:37:38.554Z,13.50
2019-04-28T11:40:06.558Z,13.50
2019-04-28T11:42:34.516Z,13.30
2019-04-28T11:45:02.310Z,13.30
2019-04-28T11:47:30.194Z,13.30
2019-04-28T11:49:58.199Z,13.50
2019-04-28T11:52:26.321Z,13.60
2019-04-28T11:54:54.092Z,13.60
2019-04-28T11:57:21.973Z,13.60
2019-04-28T11:59:49.829Z,13.60
2019-04-28T12:02:17.710Z,13.40
2019-04-28T12:04:45.540Z,13.30
2019-04-28T12:07:13.343Z,13.00
2019-04-28T12:09:49.612Z,12.70
2019-04-28T12:12:35.627Z,12.60
2019-04-28T12:15:17.379Z,12.60
2019-04-28T12:18:03.365Z,12.80
2019-04-28T12:20:31.234Z,12.70
2019-04-28T12:22:59.021Z,12.90
2019-04-28T12:25:26.798Z,13.10
2019-04-28T12:27:54.999Z,13.30
2019-04-28T12:30:22.815Z,13.50
2019-04-28T12:32:50.611Z,13.60
2019-04-28T12:35:18.621Z,13.80
2019-04-28T12:37:46.699Z,14.00
2019-04-28T12:40:14.660Z,13.90
2019-04-28T12:42:42.468Z,13.70
2019-04-28T12:45:10.249Z,13.30
2019-04-28T12:47:38.046Z,13.20
2019-04-28T12:50:12.859Z,13.30
2019-04-28T12:52:40.652Z,13.40
2019-04-28T12:55:08.540Z,13.60
2019-04-28T12:57:36.397Z,13.80
2019-04-28T13:00:17.396Z,14.00
2019-04-28T13:03:04.403Z,13.90
2019-04-28T13:05:34.115Z,13.80
2019-04-28T13:08:01.903Z,13.60
2019-04-28T13:10:29.686Z,13.40
2019-04-28T13:12:57.479Z,13.20
2019-04-28T13:15:25.289Z,13.00
2019-04-28T13:17:53.107Z,12.90
2019-04-28T13:20:20.898Z,12.90
2019-04-28T13:22:48.992Z,12.80
2019-04-28T13:25:16.939Z,13.00
2019-04-28T13:27:44.814Z,13.20
2019-04-28T13:30:14.142Z,13.50
2019-04-28T13:32:41.933Z,13.60
2019-04-28T13:35:09.970Z,13.80
2019-04-28T13:37:37.783Z,13.70
2019-04-28T13:40:11.991Z,13.70
2019-04-28T13:42:39.840Z,13.90
2019-04-28T13:45:12.807Z,14.00
2019-04-28T13:47:40.797Z,14.00
2019-04-28T13:50:26.480Z,14.00
2019-04-28T13:52:54.356Z,14.20
2019-04-28T13:55:59.725Z,14.50
2019-04-28T13:58:30.436Z,14.90
2019-04-28T14:01:07.705Z,14.70
2019-04-28T14:04:03.881Z,14.70
2019-04-28T14:06:32.594Z,14.40
2019-04-28T14:09:00.570Z,13.80
2019-04-28T14:11:28.840Z,13.70
2019-04-28T14:13:56.642Z,13.40
2019-04-28T14:16:24.431Z,13.40
2019-04-28T14:18:52.271Z,13.20
2019-04-28T14:21:20.087Z,13.10
2019-04-28T14:23:47.927Z,13.20
2019-04-28T14:26:15.748Z,13.20
2019-04-28T14:28:43.635Z,13.30
2019-04-28T14:31:11.443Z,13.50
2019-04-28T14:33:39.309Z,13.70
2019-04-28T14:36:07.125Z,14.30
2019-04-28T14:38:34.902Z,14.50
2019-04-28T14:41:02.678Z,14.40
2019-04-28T14:43:30.502Z,14.20
2019-04-28T14:45:58.763Z,14.10
2019-04-28T14:48:26.556Z,14.00
2019-04-28T14:50:54.637Z,13.90
2019-04-28T14:53:22.738Z,13.90
2019-04-28T14:55:50.562Z,13.90
2019-04-28T14:58:18.399Z,14.20
2019-04-28T15:00:50.868Z,14.20
2019-04-28T15:03:18.813Z,14.20
2019-04-28T15:06:14.888Z,14.40
2019-04-28T15:09:01.031Z,14.50
2019-04-28T15:11:32.929Z,14.70
2019-04-28T15:14:01.261Z,14.70
2019-04-28T15:16:29.139Z,14.70
2019-04-28T15:18:56.995Z,14.80
2019-04-28T15:21:24.889Z,15.00
2019-04-28T15:23:52.731Z,15.40
2019-04-28T15:26:20.519Z,15.30
2019-04-28T15:28:48.300Z,15.40
2019-04-28T15:31:16.264Z,15.50
2019-04-28T15:33:44.120Z,15.50
2019-04-28T15:36:11.977Z,15.80
2019-04-28T15:38:39.751Z,15.70
2019-04-28T15:41:20.630Z,16.00
2019-04-28T15:43:37.078Z,16.20
2019-04-28T15:46:04.880Z,16.50
2019-04-28T15:48:32.659Z,16.90
2019-04-28T15:51:00.497Z,16.90
2019-04-28T15:56:13.720Z,16.30
2019-04-28T15:58:41.526Z,16.70
2019-04-28T16:01:09.561Z,16.60
2019-04-28T16:03:37.364Z,16.80
2019-04-28T16:06:05.231Z,16.90
2019-04-28T16:08:33.065Z,16.70
2019-04-28T16:11:00.858Z,16.60
2019-04-28T16:13:28.909Z,16.70
2019-04-28T16:15:56.691Z,16.80
2019-04-28T16:18:24.524Z,16.40
2019-04-28T16:20:52.590Z,15.90
2019-04-28T16:23:20.381Z,15.60
2019-04-28T16:25:48.148Z,15.40
2019-04-28T16:28:15.967Z,15.10
2019-04-28T16:30:43.746Z,15.00
2019-04-28T16:33:11.799Z,15.00
2019-04-28T16:35:39.587Z,15.20
2019-04-28T16:38:07.379Z,16.30
2019-04-28T16:40:35.160Z,17.40
2019-04-28T16:43:02.951Z,17.80
2019-04-28T16:45:30.767Z,18.00
2019-04-28T16:47:58.560Z,17.90
2019-04-28T16:50:26.330Z,17.60
2019-04-28T16:52:54.314Z,17.10
2019-04-28T16:55:26.683Z,16.50
2019-04-28T16:58:05.107Z,16.60
2019-04-28T17:00:54.963Z,17.40
2019-04-28T17:03:22.828Z,18.20
2019-04-28T17:05:50.596Z,18.30
2019-04-28T17:08:18.395Z,18.50
2019-04-28T17:10:46.202Z,18.60
2019-04-28T17:13:13.999Z,18.90
2019-04-28T17:15:41.783Z,19.00
2019-04-28T17:18:09.635Z,19.20
2019-04-28T17:20:37.414Z,19.20
2019-04-28T17:23:05.207Z,19.30
2019-04-28T17:25:33.060Z,19.90
2019-04-28T17:28:01.007Z,19.60
2019-04-28T17:30:29.324Z,18.90
2019-04-28T17:32:57.127Z,18.40
2019-04-28T17:35:24.900Z,18.20
2019-04-28T17:38:05.748Z,17.70
2019-04-28T17:40:22.587Z,17.20
2019-04-28T17:42:50.349Z,16.40
2019-04-28T17:45:18.895Z,15.80
2019-04-28T17:47:46.695Z,15.30
2019-04-28T17:50:15.467Z,14.90
2019-04-28T17:52:43.246Z,14.70
2019-04-28T17:55:11.034Z,14.40
2019-04-28T17:57:38.859Z,14.30
2019-04-28T18:00:15.992Z,14.10
2019-04-28T18:02:56.230Z,13.90
2019-04-28T18:05:34.735Z,13.60
2019-04-28T18:08:03.506Z,13.40
2019-04-28T18:10:31.667Z,13.30
2019-04-28T18:13:00.562Z,13.00
2019-04-28T18:15:47.015Z,12.80
2019-04-28T18:18:26.195Z,12.60
2019-04-28T18:20:53.982Z,12.50
2019-04-28T18:23:21.830Z,12.30
2019-04-28T18:25:49.630Z,12.10
2019-04-28T18:28:17.407Z,12.10
2019-04-28T18:30:55.751Z,11.90
2019-04-28T18:33:37.104Z,11.90
2019-04-28T18:36:14.951Z,11.80
2019-04-28T18:38:57.650Z,11.80
2019-04-28T18:41:43.383Z,11.80
2019-04-28T18:44:15.937Z,11.70
2019-04-28T18:46:43.744Z,11.60
2019-04-28T18:49:11.531Z,11.60
2019-04-28T18:51:39.327Z,11.60
2019-04-28T18:54:07.192Z,11.60
2019-04-28T18:56:34.982Z,11.50
2019-04-28T18:59:02.753Z,11.50
2019-04-28T19:01:48.875Z,11.50
2019-04-28T19:04:16.714Z,11.50
2019-04-28T19:06:44.522Z,11.50
2019-04-28T19:09:26.091Z,11.40
2019-04-28T19:11:58.484Z,11.30
2019-04-28T19:14:30.487Z,11.30
2019-04-28T19:17:06.326Z,11.30
2019-04-28T19:19:34.618Z,11.30
2019-04-28T19:22:02.496Z,11.30
2019-04-28T19:24:30.271Z,11.30
2019-04-28T19:26:58.280Z,11.20
2019-04-28T19:29:26.079Z,11.20
2019-04-28T19:31:53.882Z,11.20
2019-04-28T19:34:21.720Z,11.20
2019-04-28T19:36:49.605Z,11.20
2019-04-28T19:39:17.383Z,11.20
2019-04-28T19:41:45.182Z,11.20
2019-04-28T19:44:12.987Z,11.10
2019-04-28T19:46:40.795Z,11.10
2019-04-28T19:49:08.576Z,11.10
2019-04-28T19:51:36.370Z,11.10
2019-04-28T19:54:04.243Z,11.10
2019-04-28T19:56:36.743Z,11.10
2019-04-28T19:59:23.984Z,11.00
2019-04-28T20:01:51.807Z,11.00
2019-04-28T20:04:20.864Z,11.00
2019-04-28T20:06:48.675Z,10.90
2019-04-28T20:09:16.448Z,10.90
2019-04-28T20:11:44.255Z,10.90
2019-04-28T20:14:12.026Z,10.90
2019-04-28T20:16:40.112Z,10.90
2019-04-28T20:19:07.887Z,10.80
2019-04-28T20:21:35.684Z,10.80
2019-04-28T20:24:03.487Z,10.80
2019-04-28T20:26:31.323Z,10.80
2019-04-28T20:28:59.124Z,10.70
2019-04-28T20:31:26.913Z,10.70
2019-04-28T20:33:54.950Z,10.70
2019-04-28T20:36:29.176Z,10.70
2019-04-28T20:39:00.483Z,10.70
2019-04-28T20:41:29.086Z,10.70
2019-04-28T20:43:57.804Z,10.80
2019-04-28T20:46:25.599Z,10.70
2019-04-28T20:48:53.402Z,10.70
2019-04-28T20:51:21.189Z,10.70
2019-04-28T20:53:49.033Z,10.70
2019-04-28T20:56:16.955Z,10.70
2019-04-28T20:58:44.763Z,10.60
2019-04-28T21:01:12.547Z,10.60
2019-04-28T21:03:40.355Z,10.60
2019-04-28T21:06:08.377Z,10.60
2019-04-28T21:08:36.320Z,10.50
2019-04-28T21:11:04.300Z,10.50
2019-04-28T21:13:32.181Z,10.60
2019-04-28T21:16:00.045Z,10.50
2019-04-28T21:18:28.263Z,10.50
2019-04-28T21:20:56.075Z,10.50
2019-04-28T21:23:23.979Z,10.40
2019-04-28T21:25:51.815Z,10.40
2019-04-28T21:28:20.002Z,10.40
2019-04-28T21:30:48.146Z,10.40
2019-04-28T21:33:16.243Z,10.40
2019-04-28T21:35:44.010Z,10.40
2019-04-28T21:38:11.886Z,10.50
2019-04-28T21:40:40.808Z,10.50
2019-04-28T21:43:30.929Z,10.40
2019-04-28T21:46:15.684Z,10.40
2019-04-28T21:49:05.915Z,10.40
2019-04-28T21:51:33.858Z,10.40
2019-04-28T21:54:01.754Z,10.40
2019-04-28T21:56:29.546Z,10.40
2019-04-28T21:58:57.395Z,10.40
2019-04-28T22:01:25.336Z,10.30
2019-04-28T22:03:53.240Z,10.40
2019-04-28T22:06:21.084Z,10.40
2019-04-28T22:08:49.152Z,10.30
2019-04-28T22:11:17.054Z,10.40
2019-04-28T22:13:45.137Z,10.40
2019-04-28T22:16:12.968Z,10.30
2019-04-28T22:18:40.832Z,10.30
2019-04-28T22:21:08.790Z,10.30
2019-04-28T22:23:44.509Z,10.30
2019-04-28T22:26:31.536Z,10.30
2019-04-28T22:28:59.347Z,10.20
2019-04-28T22:31:27.215Z,10.20
2019-04-28T22:33:55.059Z,10.20
2019-04-28T22:36:22.942Z,10.20
2019-04-28T22:38:50.718Z,10.20
2019-04-28T22:41:18.575Z,10.20
2019-04-28T22:43:46.441Z,10.20
2019-04-28T22:46:14.319Z,10.20
2019-04-28T22:48:42.186Z,10.20
2019-04-28T22:51:09.965Z,10.20
2019-04-28T22:53:37.870Z,10.20
2019-04-28T22:56:24.918Z,10.30
2019-04-28T22:58:56.670Z,10.20
2019-04-28T23:01:28.854Z,10.20
2019-04-28T23:04:02.535Z,10.20
2019-04-28T23:06:30.401Z,10.10
2019-04-28T23:08:58.284Z,10.10
2019-04-28T23:11:26.171Z,10.00
2019-04-28T23:13:54.025Z,10.00
2019-04-28T23:16:22.349Z,10.00
2019-04-28T23:18:50.643Z,10.00
2019-04-28T23:21:27.192Z,10.00
2019-04-28T23:23:55.088Z,10.00
2019-04-28T23:26:23.154Z,10.00
2019-04-28T23:28:51.019Z,9.90
2019-04-28T23:31:19.129Z,9.90
2019-04-28T23:33:46.899Z,9.80
2019-04-28T23:36:14.687Z,9.90
2019-04-28T23:38:42.780Z,9.80
2019-04-28T23:41:24.674Z,9.80
2019-04-28T23:43:52.568Z,9.70
2019-04-28T23:46:22.003Z,9.70
2019-04-28T23:48:49.766Z,9.70
2019-04-28T23:51:25.868Z,9.70
2019-04-28T23:53:58.594Z,9.70
2019-04-28T23:56:26.487Z,9.60
2019-04-28T23:58:54.486Z,9.60
